Terminal Aerodrome Forecast
Issued by NWS

Current Version | Previous Version | Text Only | Print | Product List | Glossary On
Versions: 1 2 3 4 5 6 7 8 9 10 11 12 13 14 15 16 17 18 19 20 21 22 23
000
FTUS43 KMQT 251700
TAFCMX
TAF
KCMX 251738Z 2518/2618 29011KT 6SM -SHSN OVC023
      TEMPO 2600/2604 3SM -SHSN
     FM260400 24005KT P6SM BKN025
     FM260900 VRB03KT P6SM BKN025
     FM261400 VRB03KT 3SM -SHSN OVC020=

USA.gov is the U.S. government's official web portal to all federal, state and local government web resources and services.